createdAt,value
2019-01-30T00:03:26.555Z,98836.69
2019-01-30T00:07:30.781Z,98829.59
2019-01-30T00:11:35.052Z,98810.65
2019-01-30T00:15:39.333Z,98797.13
2019-01-30T00:19:43.546Z,98794.55
2019-01-30T00:23:47.822Z,98795.34
2019-01-30T00:27:52.051Z,98779.84
2019-01-30T00:31:56.324Z,98775.95
2019-01-30T00:36:00.598Z,98780.00
2019-01-30T00:40:06.351Z,98773.70
2019-01-30T00:44:10.646Z,98778.00
2019-01-30T00:48:15.019Z,98772.83
2019-01-30T00:52:19.294Z,98773.00
2019-01-30T00:56:23.833Z,98765.94
2019-01-30T01:00:28.551Z,98762.88
2019-01-30T01:04:32.847Z,98765.30
2019-01-30T01:08:37.106Z,98762.22
2019-01-30T01:12:41.363Z,98760.93
2019-01-30T01:16:45.633Z,98757.92
2019-01-30T01:20:50.266Z,98747.27
2019-01-30T01:24:54.675Z,98741.30
2019-01-30T01:28:58.878Z,98742.97
2019-01-30T01:33:03.148Z,98731.62
2019-01-30T01:37:07.458Z,98721.21
2019-01-30T01:41:11.746Z,98714.00
2019-01-30T01:45:17.990Z,98701.43
2019-01-30T01:49:22.518Z,98696.74
2019-01-30T01:53:26.731Z,98689.36
2019-01-30T01:57:31.004Z,98685.49
2019-01-30T02:01:35.294Z,98677.84
2019-01-30T02:05:39.577Z,98672.68
2019-01-30T02:09:43.806Z,98670.69
2019-01-30T02:13:48.371Z,98665.97
2019-01-30T02:17:52.721Z,98661.70
2019-01-30T02:21:56.992Z,98653.05
2019-01-30T02:26:01.335Z,98642.23
2019-01-30T02:30:08.801Z,98632.18
2019-01-30T02:34:13.082Z,98638.53
2019-01-30T02:38:17.367Z,98635.41
2019-01-30T02:42:21.643Z,98626.81
2019-01-30T02:46:25.870Z,98624.80
2019-01-30T02:50:30.212Z,98618.40
2019-01-30T02:54:34.460Z,98607.10
2019-01-30T02:58:38.750Z,98612.98
2019-01-30T03:02:42.981Z,98611.37
2019-01-30T03:06:47.257Z,98608.72
2019-01-30T03:10:51.537Z,98597.27
2019-01-30T03:14:55.816Z,98595.83
2019-01-30T03:19:00.085Z,98592.61
2019-01-30T03:23:04.465Z,98589.92
2019-01-30T03:27:08.754Z,98579.38
2019-01-30T03:31:18.034Z,98579.12
2019-01-30T03:35:19.217Z,98578.58
2019-01-30T03:39:23.485Z,98572.02
2019-01-30T03:43:27.702Z,98576.73
2019-01-30T03:47:31.934Z,98567.50
2019-01-30T03:51:36.209Z,98564.77
2019-01-30T03:55:40.480Z,98556.42
2019-01-30T03:59:45.112Z,98555.77
2019-01-30T04:03:49.366Z,98547.88
2019-01-30T04:07:54.003Z,98540.02
2019-01-30T04:11:58.318Z,98543.36
2019-01-30T04:16:02.583Z,98530.36
2019-01-30T04:20:08.423Z,98532.33
2019-01-30T04:24:12.698Z,98527.91
2019-01-30T04:28:16.907Z,98529.83
2019-01-30T04:32:21.185Z,98534.33
2019-01-30T04:36:25.476Z,98528.16
2019-01-30T04:40:29.700Z,98524.66
2019-01-30T04:44:34.015Z,98534.11
2019-01-30T04:48:38.284Z,98534.79
2019-01-30T04:52:42.571Z,98530.02
2019-01-30T04:56:46.764Z,98526.69
2019-01-30T05:00:51.079Z,98521.38
2019-01-30T05:04:55.356Z,98516.69
2019-01-30T05:09:00.477Z,98511.85
2019-01-30T05:13:04.728Z,98511.00
2019-01-30T05:17:09.736Z,98504.25
2019-01-30T05:21:14.075Z,98498.77
2019-01-30T05:25:20.143Z,98498.95
2019-01-30T05:29:24.798Z,98496.05
2019-01-30T05:33:29.009Z,98496.11
2019-01-30T05:37:33.313Z,98495.37
2019-01-30T05:41:37.732Z,98495.03
2019-01-30T05:45:41.957Z,98489.14
2019-01-30T05:49:46.209Z,98487.95
2019-01-30T05:53:50.508Z,98488.39
2019-01-30T05:57:54.762Z,98488.92
2019-01-30T06:01:59.031Z,98489.89
2019-01-30T06:06:03.321Z,98486.02
2019-01-30T06:10:07.996Z,98481.69
2019-01-30T06:14:12.249Z,98480.39
2019-01-30T06:18:16.491Z,98483.87
2019-01-30T06:22:20.762Z,98485.48
2019-01-30T06:26:25.007Z,98483.72
2019-01-30T06:30:29.314Z,98476.53
2019-01-30T06:34:33.673Z,98479.80
2019-01-30T06:38:38.042Z,98475.45
2019-01-30T06:42:42.353Z,98473.62
2019-01-30T06:46:46.659Z,98482.75
2019-01-30T06:50:50.961Z,98478.94
2019-01-30T06:54:55.259Z,98482.27
2019-01-30T06:58:59.542Z,98477.05
2019-01-30T07:03:04.069Z,98474.42
2019-01-30T07:07:08.778Z,98467.71
2019-01-30T07:11:13.063Z,98465.23
2019-01-30T07:15:17.439Z,98461.27
2019-01-30T07:19:21.711Z,98473.68
2019-01-30T07:23:25.998Z,98470.71
2019-01-30T07:27:30.221Z,98473.68
2019-01-30T07:31:34.528Z,98474.47
2019-01-30T07:35:38.815Z,98470.19
2019-01-30T07:39:43.096Z,98467.23
2019-01-30T07:43:47.434Z,98462.60
2019-01-30T07:47:52.052Z,98463.20
2019-01-30T07:51:56.408Z,98463.79
2019-01-30T07:56:00.674Z,98464.05
2019-01-30T08:00:07.057Z,98461.19
2019-01-30T08:04:11.441Z,98458.33
2019-01-30T08:08:15.733Z,98456.81
2019-01-30T08:12:20.061Z,98455.36
2019-01-30T08:16:25.100Z,98453.34
2019-01-30T08:20:29.458Z,98442.70
2019-01-30T08:24:34.239Z,98447.30
2019-01-30T08:28:39.247Z,98446.25
2019-01-30T08:32:44.248Z,98444.23
2019-01-30T08:36:50.853Z,98438.31
2019-01-30T08:40:55.328Z,98449.20
2019-01-30T08:44:59.747Z,98444.23
2019-01-30T08:49:04.321Z,98452.20
2019-01-30T08:53:08.896Z,98451.78
2019-01-30T08:57:13.817Z,98442.11
2019-01-30T09:01:18.170Z,98450.43
2019-01-30T09:05:22.777Z,98453.23
2019-01-30T09:09:27.544Z,98450.95
2019-01-30T09:13:32.283Z,98447.86
2019-01-30T09:17:36.890Z,98458.89
2019-01-30T09:21:41.673Z,98459.61
2019-01-30T09:25:45.984Z,98455.64
2019-01-30T09:29:50.605Z,98460.34
2019-01-30T09:33:54.932Z,98452.03
2019-01-30T09:37:59.172Z,98463.16
2019-01-30T09:42:03.661Z,98456.12
2019-01-30T09:46:07.959Z,98464.94
2019-01-30T09:50:14.900Z,98453.03
2019-01-30T09:54:19.171Z,98451.91
2019-01-30T09:58:24.042Z,98444.24
2019-01-30T10:02:28.413Z,98446.40
2019-01-30T10:06:32.805Z,98436.37
2019-01-30T10:10:38.414Z,98430.72
2019-01-30T10:14:42.688Z,98431.45
2019-01-30T10:18:46.943Z,98426.66
2019-01-30T10:22:51.456Z,98424.37
2019-01-30T10:26:55.755Z,98421.64
2019-01-30T10:31:00.340Z,98425.45
2019-01-30T10:35:23.818Z,98425.95
2019-01-30T10:39:28.081Z,98417.36
2019-01-30T10:43:32.456Z,98410.59
2019-01-30T10:47:36.728Z,98418.47
2019-01-30T10:51:41.065Z,98405.66
2019-01-30T10:55:45.299Z,98403.19
2019-01-30T10:59:49.666Z,98398.55
2019-01-30T11:03:57.514Z,98395.68
2019-01-30T11:07:59.885Z,98390.63
2019-01-30T11:12:04.169Z,98393.77
2019-01-30T11:16:08.463Z,98388.25
2019-01-30T11:20:14.129Z,98389.14
2019-01-30T11:24:18.390Z,98398.77
2019-01-30T11:28:22.912Z,98390.22
2019-01-30T11:32:27.202Z,98387.22
2019-01-30T11:36:31.454Z,98391.23
2019-01-30T11:40:35.824Z,98380.92
2019-01-30T11:44:40.056Z,98383.53
2019-01-30T11:48:44.340Z,98380.52
2019-01-30T11:52:48.627Z,98380.14
2019-01-30T11:56:52.914Z,98380.57
2019-01-30T12:01:03.663Z,98377.52
2019-01-30T12:05:10.293Z,98377.52
2019-01-30T12:09:14.623Z,98374.03
2019-01-30T12:13:18.880Z,98374.08
2019-01-30T12:17:23.134Z,98379.35
2019-01-30T12:21:27.436Z,98377.22
2019-01-30T12:25:31.720Z,98381.17
2019-01-30T12:29:36.965Z,98380.36
2019-01-30T12:33:41.278Z,98381.16
2019-01-30T12:37:45.539Z,98379.06
2019-01-30T12:41:49.795Z,98383.38
2019-01-30T12:45:54.086Z,98381.25
2019-01-30T12:49:58.410Z,98374.68
2019-01-30T12:54:02.939Z,98372.92
2019-01-30T12:58:07.186Z,98373.77
2019-01-30T13:02:11.668Z,98370.30
2019-01-30T13:06:15.934Z,98373.33
2019-01-30T13:10:20.586Z,98373.33
2019-01-30T13:14:24.885Z,98374.52
2019-01-30T13:18:29.149Z,98381.34
2019-01-30T13:22:33.432Z,98379.56
2019-01-30T13:26:37.777Z,98372.67
2019-01-30T13:30:43.785Z,98378.34
2019-01-30T13:34:48.924Z,98391.48
2019-01-30T13:38:53.557Z,98383.36
2019-01-30T13:42:57.796Z,98393.67
2019-01-30T13:47:02.067Z,98382.81
2019-01-30T13:51:06.922Z,98391.00
2019-01-30T13:55:11.483Z,98393.99
2019-01-30T13:59:15.742Z,98388.78
2019-01-30T14:03:21.864Z,98384.83
2019-01-30T14:07:27.889Z,98392.59
2019-01-30T14:11:33.938Z,98391.66
2019-01-30T14:15:39.835Z,98391.69
2019-01-30T14:19:46.814Z,98398.14
2019-01-30T14:23:52.711Z,98395.06
2019-01-30T14:27:58.929Z,98397.56
2019-01-30T14:32:04.720Z,98401.85
2019-01-30T14:36:10.824Z,98398.80
2019-01-30T14:40:18.508Z,98400.16
2019-01-30T14:44:24.456Z,98394.11
2019-01-30T14:48:30.327Z,98394.11
2019-01-30T14:52:36.528Z,98396.61
2019-01-30T14:56:42.960Z,98402.63
2019-01-30T15:00:48.610Z,98402.56
2019-01-30T15:04:54.313Z,98400.34
2019-01-30T15:09:01.682Z,98399.97
2019-01-30T15:13:09.634Z,98395.19
2019-01-30T15:17:15.666Z,98401.67
2019-01-30T15:21:21.773Z,98404.66
2019-01-30T15:25:28.008Z,98402.41
2019-01-30T15:29:33.860Z,98401.05
2019-01-30T15:33:39.493Z,98402.28
2019-01-30T15:37:45.476Z,98411.33
2019-01-30T15:41:51.047Z,98428.53
2019-01-30T15:45:55.278Z,98432.45
2019-01-30T15:49:59.557Z,98438.47
2019-01-30T15:54:03.926Z,98440.16
2019-01-30T15:58:10.221Z,98447.96
2019-01-30T16:02:14.506Z,98446.67
2019-01-30T16:06:18.761Z,98449.33
2019-01-30T16:10:23.016Z,98448.56
2019-01-30T16:14:27.458Z,98452.55
2019-01-30T16:18:31.735Z,98451.65
2019-01-30T16:23:03.637Z,98457.56
2019-01-30T16:27:07.874Z,98456.50
2019-01-30T16:31:12.117Z,98458.95
2019-01-30T16:35:18.528Z,98465.36
2019-01-30T16:39:23.106Z,98476.19
2019-01-30T16:43:27.330Z,98482.77
2019-01-30T16:47:31.660Z,98482.41
2019-01-30T16:51:37.128Z,98485.94
2019-01-30T16:55:41.544Z,98494.23
2019-01-30T16:59:45.776Z,98491.25
2019-01-30T17:03:50.031Z,98500.75
2019-01-30T17:07:54.295Z,98508.16
2019-01-30T17:11:58.592Z,98504.74
2019-01-30T17:16:02.858Z,98508.13
2019-01-30T17:20:13.860Z,98510.69
2019-01-30T17:24:19.087Z,98517.99
2019-01-30T17:28:23.472Z,98522.70
2019-01-30T17:32:27.924Z,98515.77
2019-01-30T17:36:32.275Z,98516.24
2019-01-30T17:40:36.961Z,98511.23
2019-01-30T17:44:41.284Z,98510.76
2019-01-30T17:48:45.598Z,98506.87
2019-01-30T17:52:49.891Z,98513.69
2019-01-30T17:56:54.248Z,98517.91
2019-01-30T18:01:02.470Z,98524.31
2019-01-30T18:05:06.946Z,98526.58
2019-01-30T18:09:11.436Z,98533.66
2019-01-30T18:13:15.713Z,98540.08
2019-01-30T18:17:20.040Z,98544.76
2019-01-30T18:21:24.290Z,98547.84
2019-01-30T18:25:28.586Z,98549.25
2019-01-30T18:29:32.894Z,98551.91
2019-01-30T18:33:37.146Z,98541.53
2019-01-30T18:37:41.447Z,98554.60
2019-01-30T18:41:45.649Z,98553.77
2019-01-30T18:45:49.982Z,98557.59
2019-01-30T18:49:54.273Z,98559.65
2019-01-30T18:53:58.805Z,98557.86
2019-01-30T18:58:03.077Z,98565.53
2019-01-30T19:02:07.453Z,98561.20
2019-01-30T19:06:11.703Z,98570.25
2019-01-30T19:10:16.874Z,98568.84
2019-01-30T19:14:21.134Z,98566.58
2019-01-30T19:18:25.662Z,98569.49
2019-01-30T19:22:29.937Z,98567.77
2019-01-30T19:26:34.190Z,98568.66
2019-01-30T19:30:38.492Z,98565.93
2019-01-30T19:34:42.762Z,98571.11
2019-01-30T19:38:47.057Z,98575.36
2019-01-30T19:42:51.348Z,98575.36
2019-01-30T19:46:56.012Z,98574.96
2019-01-30T19:51:02.586Z,98569.81
2019-01-30T19:55:07.484Z,98575.47
2019-01-30T19:59:17.340Z,98574.49
2019-01-30T20:03:27.484Z,98576.55
2019-01-30T20:07:33.348Z,98575.67
2019-01-30T20:11:38.295Z,98583.45
2019-01-30T20:15:45.825Z,98585.61
2019-01-30T20:19:51.659Z,98589.14
2019-01-30T20:23:56.293Z,98591.34
2019-01-30T20:28:00.583Z,98590.43
2019-01-30T20:32:04.921Z,98596.41
2019-01-30T20:36:09.295Z,98598.56
2019-01-30T20:40:16.047Z,98598.92
2019-01-30T20:44:20.307Z,98599.39
2019-01-30T20:48:24.630Z,98606.34
2019-01-30T20:52:29.206Z,98614.97
2019-01-30T20:56:38.332Z,98616.58
2019-01-30T21:00:52.040Z,98620.00
2019-01-30T21:04:57.101Z,98624.79
2019-01-30T21:09:03.534Z,98623.50
2019-01-30T21:13:08.292Z,98627.38
2019-01-30T21:17:12.840Z,98622.67
2019-01-30T21:21:17.085Z,98630.05
2019-01-30T21:25:21.536Z,98626.16
2019-01-30T21:29:25.918Z,98621.30
2019-01-30T21:33:30.168Z,98624.59
2019-01-30T21:37:34.908Z,98618.94
2019-01-30T21:41:39.252Z,98628.87
2019-01-30T21:45:43.651Z,98614.23
2019-01-30T21:49:47.974Z,98612.82
2019-01-30T21:53:52.298Z,98611.88
2019-01-30T21:57:56.666Z,98613.56
2019-01-30T22:02:08.046Z,98612.23
2019-01-30T22:06:07.438Z,98618.66
2019-01-30T22:10:14.415Z,98615.59
2019-01-30T22:14:18.815Z,98608.30
2019-01-30T22:18:23.113Z,98615.48
2019-01-30T22:22:31.504Z,98613.75
2019-01-30T22:27:12.961Z,98613.01
2019-01-30T22:31:17.837Z,98610.14
2019-01-30T22:35:24.985Z,98605.87
2019-01-30T22:39:29.548Z,98611.16
2019-01-30T22:43:51.302Z,98619.48
2019-01-30T22:47:56.650Z,98611.40
2019-01-30T22:52:02.508Z,98617.56
2019-01-30T22:56:07.816Z,98609.91
2019-01-30T23:00:58.431Z,98612.58
2019-01-30T23:05:14.238Z,98615.23
2019-01-30T23:10:11.751Z,98617.00
2019-01-30T23:14:24.830Z,98613.55
2019-01-30T23:18:59.608Z,98618.34
2019-01-30T23:23:45.846Z,98615.31
2019-01-30T23:28:41.588Z,98615.23
2019-01-30T23:33:25.408Z,98613.94
2019-01-30T23:38:12.375Z,98610.41
2019-01-30T23:42:47.187Z,98612.06
2019-01-30T23:47:34.602Z,98601.11
2019-01-30T23:52:26.359Z,98602.80
2019-01-30T23:56:56.433Z,98601.91
